createdAt,value
2023-01-07T12:39:31.149Z,6.47
2023-01-07T12:42:04.922Z,6.80
2023-01-07T12:44:31.730Z,5.47
2023-01-07T12:47:31.088Z,6.22
2023-01-07T12:50:00.021Z,5.53
2023-01-07T12:52:40.493Z,5.05
2023-01-07T12:55:17.287Z,5.07
2023-01-07T12:57:50.323Z,8.25
2023-01-07T13:00:20.629Z,5.65
2023-01-07T13:02:54.762Z,6.07
2023-01-07T13:05:25.101Z,6.97
2023-01-07T13:07:56.823Z,7.55
2023-01-07T13:10:26.554Z,5.05
2023-01-07T13:12:57.134Z,7.00
2023-01-07T13:15:27.040Z,5.22
2023-01-07T13:17:56.083Z,4.00
2023-01-07T13:20:41.657Z,5.78
2023-01-07T13:23:18.202Z,4.35
2023-01-07T13:26:00.729Z,6.47
2023-01-07T13:28:42.089Z,6.60
2023-01-07T13:31:19.756Z,5.57
2023-01-07T13:33:56.672Z,5.63
2023-01-07T13:36:31.794Z,7.68
2023-01-07T13:39:25.688Z,6.55
2023-01-07T13:42:22.558Z,8.63
2023-01-07T13:44:58.480Z,6.43
2023-01-07T13:47:32.284Z,5.95
2023-01-07T13:50:02.307Z,4.65
2023-01-07T13:52:32.232Z,5.57
2023-01-07T13:55:01.828Z,5.95
2023-01-07T13:57:49.456Z,7.80
2023-01-07T14:00:39.021Z,4.78
2023-01-07T14:03:34.521Z,5.68
2023-01-07T14:06:41.684Z,3.40
2023-01-07T14:09:25.826Z,5.75
2023-01-07T14:12:32.460Z,4.30
2023-01-07T14:15:19.168Z,4.65
2023-01-07T14:17:56.313Z,3.72
2023-01-07T14:20:32.465Z,4.28
2023-01-07T14:23:08.448Z,4.35
2023-01-07T14:25:48.897Z,5.47
2023-01-07T14:28:35.698Z,4.97
2023-01-07T14:31:04.619Z,4.18
2023-01-07T14:33:36.097Z,5.10
2023-01-07T14:36:05.731Z,8.35
2023-01-07T14:39:25.805Z,6.13
2023-01-07T14:42:39.128Z,7.07
2023-01-07T14:45:49.479Z,5.70
2023-01-07T14:48:35.040Z,6.22
2023-01-07T14:51:38.424Z,7.50
2023-01-07T14:54:41.620Z,7.72
2023-01-07T14:57:20.517Z,8.00
2023-01-07T15:00:04.435Z,7.10
2023-01-07T15:02:57.991Z,7.80
2023-01-07T15:05:43.978Z,10.15
2023-01-07T15:08:36.012Z,10.88
2023-01-07T15:11:25.472Z,11.05
2023-01-07T15:14:15.962Z,10.57
2023-01-07T15:16:46.451Z,11.30
2023-01-07T15:19:13.271Z,8.48
2023-01-07T15:21:53.021Z,8.98
2023-01-07T15:24:28.773Z,10.77
2023-01-07T15:27:02.105Z,7.25
2023-01-07T15:29:37.046Z,8.90
2023-01-07T15:32:12.444Z,9.82
2023-01-07T16:41:42.425Z,13.02
2023-01-07T17:01:48.199Z,33.95
2023-01-07T17:18:57.262Z,32.47
2023-01-07T17:40:44.107Z,19.30
2023-01-07T17:49:12.859Z,24.40
2023-01-07T18:47:15.884Z,36.65
2023-01-07T18:49:42.648Z,20.45
2023-01-07T18:52:09.346Z,27.42
2023-01-07T20:39:17.193Z,20.35
2023-01-07T20:41:56.482Z,16.63
2023-01-07T20:50:09.745Z,18.20
2023-01-07T21:01:27.198Z,17.05
2023-01-07T21:06:49.937Z,17.85
2023-01-07T21:12:19.547Z,15.77
2023-01-07T21:17:36.749Z,18.23
2023-01-07T21:28:59.009Z,16.00
2023-01-07T21:31:26.582Z,15.18
2023-01-07T21:33:56.558Z,11.43
2023-01-07T21:36:24.830Z,13.38
2023-01-07T21:38:54.450Z,13.25
2023-01-07T21:41:22.399Z,13.57
2023-01-07T21:43:49.441Z,15.82
2023-01-07T21:46:16.848Z,13.25
2023-01-07T21:48:46.835Z,16.30
2023-01-07T21:51:17.802Z,17.00
2023-01-07T21:53:44.672Z,15.55
2023-01-07T21:56:14.516Z,15.20
2023-01-07T21:58:41.882Z,12.77
2023-01-07T22:01:09.817Z,17.20
2023-01-07T22:03:37.648Z,12.48
2023-01-07T22:06:07.229Z,11.93
2023-01-07T22:08:35.806Z,12.82
2023-01-07T22:11:02.772Z,11.57
2023-01-07T22:13:29.602Z,12.07
2023-01-07T22:15:56.373Z,14.43
2023-01-07T22:18:23.532Z,18.73
2023-01-07T22:20:54.654Z,20.10
2023-01-07T22:23:22.056Z,15.55
2023-01-07T22:25:50.450Z,14.60
2023-01-07T22:28:19.265Z,15.60
2023-01-07T22:30:51.502Z,27.00
2023-01-07T22:33:18.221Z,29.70
2023-01-07T22:35:45.486Z,34.13
2023-01-07T22:38:14.343Z,26.10
2023-01-07T22:40:41.672Z,21.95
2023-01-07T22:43:14.320Z,25.42
2023-01-07T22:45:44.813Z,19.75
2023-01-07T22:48:15.257Z,16.60
2023-01-07T22:50:42.255Z,16.88
2023-01-07T22:53:09.897Z,18.30
2023-01-07T22:55:37.681Z,17.13
2023-01-07T22:58:05.073Z,20.27
2023-01-07T23:00:54.806Z,16.75
2023-01-07T23:03:22.907Z,15.77
2023-01-07T23:05:50.895Z,15.80
2023-01-07T23:08:18.134Z,15.60
2023-01-07T23:10:45.141Z,16.27
2023-01-07T23:13:12.338Z,16.70
2023-01-07T23:15:39.692Z,15.98
2023-01-07T23:18:09.999Z,14.25
2023-01-07T23:20:40.366Z,14.27
2023-01-07T23:23:07.644Z,13.43
2023-01-07T23:25:35.772Z,14.68
2023-01-07T23:28:03.185Z,15.40
2023-01-07T23:30:30.113Z,15.30
2023-01-07T23:32:57.364Z,15.15
2023-01-07T23:35:25.360Z,16.38
2023-01-07T23:37:51.992Z,15.40
2023-01-07T23:40:18.972Z,14.73
2023-01-07T23:42:46.168Z,13.07
2023-01-07T23:45:12.825Z,12.23
2023-01-07T23:47:39.493Z,13.88
2023-01-07T23:50:07.377Z,13.35
2023-01-07T23:52:35.343Z,12.30
2023-01-07T23:55:02.154Z,13.20
2023-01-07T23:57:28.924Z,12.13
2023-01-07T23:59:55.865Z,13.98
